sensor_id;sensor_type;location;lat;lon;timestamp;P1;durP1;ratioP1;P2;durP2;ratioP2
71176;SDS011;58877;51.992;4.504;2022-09-09T00:07:47;4.11;;;4.11;;
71176;SDS011;58877;51.992;4.504;2022-09-09T00:15:21;3.88;;;3.88;;
71176;SDS011;58877;51.992;4.504;2022-09-09T00:17:56;3.81;;;3.81;;
71176;SDS011;58877;51.992;4.504;2022-09-09T00:21:01;3.97;;;3.97;;
71176;SDS011;58877;51.992;4.504;2022-09-09T00:23:29;4.31;;;4.31;;
71176;SDS011;58877;51.992;4.504;2022-09-09T00:25:59;4.06;;;4.06;;
71176;SDS011;58877;51.992;4.504;2022-09-09T00:31:27;4.30;;;4.28;;
71176;SDS011;58877;51.992;4.504;2022-09-09T00:33:55;4.49;;;4.48;;
71176;SDS011;58877;51.992;4.504;2022-09-09T00:36:29;4.51;;;4.51;;
71176;SDS011;58877;51.992;4.504;2022-09-09T00:39:00;4.97;;;4.97;;
71176;SDS011;58877;51.992;4.504;2022-09-09T00:44:16;4.92;;;4.92;;
71176;SDS011;58877;51.992;4.504;2022-09-09T00:58:06;4.80;;;4.79;;
71176;SDS011;58877;51.992;4.504;2022-09-09T01:00:39;4.71;;;4.70;;
71176;SDS011;58877;51.992;4.504;2022-09-09T01:06:15;5.02;;;5.02;;
71176;SDS011;58877;51.992;4.504;2022-09-09T01:16:58;4.46;;;4.46;;
71176;SDS011;58877;51.992;4.504;2022-09-09T01:19:38;4.47;;;4.47;;
71176;SDS011;58877;51.992;4.504;2022-09-09T01:22:33;3.96;;;3.96;;
71176;SDS011;58877;51.992;4.504;2022-09-09T01:27:58;4.22;;;4.22;;
71176;SDS011;58877;51.992;4.504;2022-09-09T01:30:27;3.86;;;3.86;;
71176;SDS011;58877;51.992;4.504;2022-09-09T01:32:54;4.08;;;4.08;;
71176;SDS011;58877;51.992;4.504;2022-09-09T01:38:18;3.91;;;3.91;;
71176;SDS011;58877;51.992;4.504;2022-09-09T01:40:44;3.79;;;3.79;;
71176;SDS011;58877;51.992;4.504;2022-09-09T01:43:10;3.58;;;3.58;;
71176;SDS011;58877;51.992;4.504;2022-09-09T01:45:36;3.53;;;3.53;;
71176;SDS011;58877;51.992;4.504;2022-09-09T01:48:05;3.31;;;3.29;;
71176;SDS011;58877;51.992;4.504;2022-09-09T01:50:31;3.63;;;3.59;;
71176;SDS011;58877;51.992;4.504;2022-09-09T01:52:58;3.72;;;3.68;;
71176;SDS011;58877;51.992;4.504;2022-09-09T01:55:30;3.29;;;3.29;;
71176;SDS011;58877;51.992;4.504;2022-09-09T02:00:38;3.02;;;3.02;;
71176;SDS011;58877;51.992;4.504;2022-09-09T02:03:25;3.11;;;3.08;;
71176;SDS011;58877;51.992;4.504;2022-09-09T02:08:40;2.76;;;2.75;;
71176;SDS011;58877;51.992;4.504;2022-09-09T02:11:19;2.40;;;2.40;;
71176;SDS011;58877;51.992;4.504;2022-09-09T02:13:49;2.53;;;2.53;;
71176;SDS011;58877;51.992;4.504;2022-09-09T02:16:24;2.15;;;2.15;;
71176;SDS011;58877;51.992;4.504;2022-09-09T02:19:19;2.17;;;2.13;;
71176;SDS011;58877;51.992;4.504;2022-09-09T02:21:53;2.11;;;2.05;;
71176;SDS011;58877;51.992;4.504;2022-09-09T02:24:25;2.14;;;2.08;;
71176;SDS011;58877;51.992;4.504;2022-09-09T02:26:54;2.26;;;2.21;;
71176;SDS011;58877;51.992;4.504;2022-09-09T02:29:25;2.24;;;2.22;;
71176;SDS011;58877;51.992;4.504;2022-09-09T02:31:59;2.25;;;2.22;;
71176;SDS011;58877;51.992;4.504;2022-09-09T02:34:30;2.32;;;2.22;;
71176;SDS011;58877;51.992;4.504;2022-09-09T02:37:01;2.49;;;2.40;;
71176;SDS011;58877;51.992;4.504;2022-09-09T02:39:31;2.30;;;2.24;;
71176;SDS011;58877;51.992;4.504;2022-09-09T02:41:57;2.39;;;2.30;;
71176;SDS011;58877;51.992;4.504;2022-09-09T02:44:22;2.31;;;2.22;;
71176;SDS011;58877;51.992;4.504;2022-09-09T02:49:55;2.76;;;2.60;;
71176;SDS011;58877;51.992;4.504;2022-09-09T02:55:12;2.40;;;2.34;;
71176;SDS011;58877;51.992;4.504;2022-09-09T02:57:46;2.14;;;2.11;;
71176;SDS011;58877;51.992;4.504;2022-09-09T03:00:14;2.51;;;2.48;;
71176;SDS011;58877;51.992;4.504;2022-09-09T03:02:40;2.37;;;2.35;;
71176;SDS011;58877;51.992;4.504;2022-09-09T03:05:07;2.43;;;2.35;;
71176;SDS011;58877;51.992;4.504;2022-09-09T03:07:33;2.18;;;2.08;;
71176;SDS011;58877;51.992;4.504;2022-09-09T03:09:58;2.36;;;2.24;;
71176;SDS011;58877;51.992;4.504;2022-09-09T03:12:24;2.09;;;2.00;;
71176;SDS011;58877;51.992;4.504;2022-09-09T03:14:49;1.85;;;1.76;;
71176;SDS011;58877;51.992;4.504;2022-09-09T03:17:15;2.03;;;1.93;;
71176;SDS011;58877;51.992;4.504;2022-09-09T03:19:40;2.33;;;2.20;;
71176;SDS011;58877;51.992;4.504;2022-09-09T03:22:06;2.17;;;2.04;;
71176;SDS011;58877;51.992;4.504;2022-09-09T03:24:32;2.16;;;2.02;;
71176;SDS011;58877;51.992;4.504;2022-09-09T03:26:58;2.61;;;2.39;;
71176;SDS011;58877;51.992;4.504;2022-09-09T03:29:23;2.09;;;1.91;;
71176;SDS011;58877;51.992;4.504;2022-09-09T03:31:49;2.22;;;2.05;;
71176;SDS011;58877;51.992;4.504;2022-09-09T03:34:16;2.12;;;1.97;;
71176;SDS011;58877;51.992;4.504;2022-09-09T03:36:42;1.84;;;1.72;;
71176;SDS011;58877;51.992;4.504;2022-09-09T03:39:09;2.50;;;2.32;;
71176;SDS011;58877;51.992;4.504;2022-09-09T03:41:35;2.28;;;2.08;;
71176;SDS011;58877;51.992;4.504;2022-09-09T03:44:02;2.22;;;1.99;;
71176;SDS011;58877;51.992;4.504;2022-09-09T03:46:27;2.08;;;1.85;;
71176;SDS011;58877;51.992;4.504;2022-09-09T03:48:53;2.50;;;2.22;;
71176;SDS011;58877;51.992;4.504;2022-09-09T03:51:18;2.09;;;1.86;;
71176;SDS011;58877;51.992;4.504;2022-09-09T03:53:44;2.42;;;2.15;;
71176;SDS011;58877;51.992;4.504;2022-09-09T03:56:10;1.98;;;1.79;;
71176;SDS011;58877;51.992;4.504;2022-09-09T03:58:36;2.40;;;2.16;;
71176;SDS011;58877;51.992;4.504;2022-09-09T04:01:03;2.24;;;1.99;;
71176;SDS011;58877;51.992;4.504;2022-09-09T04:03:31;2.06;;;1.83;;
71176;SDS011;58877;51.992;4.504;2022-09-09T04:05:58;2.09;;;1.87;;
71176;SDS011;58877;51.992;4.504;2022-09-09T04:08:25;2.41;;;2.12;;
71176;SDS011;58877;51.992;4.504;2022-09-09T04:10:51;2.55;;;2.22;;
71176;SDS011;58877;51.992;4.504;2022-09-09T04:13:18;1.85;;;1.66;;
71176;SDS011;58877;51.992;4.504;2022-09-09T04:15:50;2.03;;;1.84;;
71176;SDS011;58877;51.992;4.504;2022-09-09T04:18:20;1.90;;;1.71;;
71176;SDS011;58877;51.992;4.504;2022-09-09T04:20:47;1.82;;;1.66;;
71176;SDS011;58877;51.992;4.504;2022-09-09T04:23:13;1.75;;;1.62;;
71176;SDS011;58877;51.992;4.504;2022-09-09T04:25:43;1.90;;;1.79;;
71176;SDS011;58877;51.992;4.504;2022-09-09T04:28:09;1.91;;;1.80;;
71176;SDS011;58877;51.992;4.504;2022-09-09T04:30:35;1.89;;;1.75;;
71176;SDS011;58877;51.992;4.504;2022-09-09T04:33:01;2.34;;;2.12;;
71176;SDS011;58877;51.992;4.504;2022-09-09T04:35:26;1.95;;;1.76;;
71176;SDS011;58877;51.992;4.504;2022-09-09T04:37:52;1.94;;;1.74;;
71176;SDS011;58877;51.992;4.504;2022-09-09T04:40:17;2.34;;;2.12;;
71176;SDS011;58877;51.992;4.504;2022-09-09T04:42:43;2.76;;;2.45;;
71176;SDS011;58877;51.992;4.504;2022-09-09T04:45:09;2.54;;;2.23;;
71176;SDS011;58877;51.992;4.504;2022-09-09T04:47:36;2.40;;;2.10;;
71176;SDS011;58877;51.992;4.504;2022-09-09T04:50:02;2.15;;;1.89;;
71176;SDS011;58877;51.992;4.504;2022-09-09T04:52:28;2.30;;;2.05;;
71176;SDS011;58877;51.992;4.504;2022-09-09T04:54:53;2.65;;;2.31;;
71176;SDS011;58877;51.992;4.504;2022-09-09T04:57:19;2.45;;;2.16;;
71176;SDS011;58877;51.992;4.504;2022-09-09T04:59:45;2.55;;;2.29;;
71176;SDS011;58877;51.992;4.504;2022-09-09T05:02:11;2.55;;;2.34;;
71176;SDS011;58877;51.992;4.504;2022-09-09T05:04:36;2.77;;;2.54;;
71176;SDS011;58877;51.992;4.504;2022-09-09T05:07:02;3.09;;;2.76;;
71176;SDS011;58877;51.992;4.504;2022-09-09T05:09:27;3.23;;;2.93;;
71176;SDS011;58877;51.992;4.504;2022-09-09T05:11:52;2.78;;;2.57;;
71176;SDS011;58877;51.992;4.504;2022-09-09T05:14:18;2.79;;;2.59;;
71176;SDS011;58877;51.992;4.504;2022-09-09T05:16:44;2.89;;;2.66;;
71176;SDS011;58877;51.992;4.504;2022-09-09T05:19:10;2.89;;;2.65;;
71176;SDS011;58877;51.992;4.504;2022-09-09T05:21:35;2.53;;;2.30;;
71176;SDS011;58877;51.992;4.504;2022-09-09T05:24:02;3.16;;;2.84;;
71176;SDS011;58877;51.992;4.504;2022-09-09T05:26:28;2.73;;;2.43;;
71176;SDS011;58877;51.992;4.504;2022-09-09T05:28:54;3.36;;;2.92;;
71176;SDS011;58877;51.992;4.504;2022-09-09T05:31:20;3.19;;;2.73;;
71176;SDS011;58877;51.992;4.504;2022-09-09T05:33:49;2.91;;;2.55;;
71176;SDS011;58877;51.992;4.504;2022-09-09T05:36:16;3.12;;;2.75;;
71176;SDS011;58877;51.992;4.504;2022-09-09T05:38:44;2.73;;;2.46;;
71176;SDS011;58877;51.992;4.504;2022-09-09T05:41:10;3.18;;;2.79;;
71176;SDS011;58877;51.992;4.504;2022-09-09T05:43:37;3.05;;;2.61;;
71176;SDS011;58877;51.992;4.504;2022-09-09T05:46:04;3.61;;;3.01;;
71176;SDS011;58877;51.992;4.504;2022-09-09T05:48:35;3.74;;;3.05;;
71176;SDS011;58877;51.992;4.504;2022-09-09T05:51:19;2.82;;;2.35;;
71176;SDS011;58877;51.992;4.504;2022-09-09T05:53:47;3.12;;;2.68;;
71176;SDS011;58877;51.992;4.504;2022-09-09T05:56:14;3.33;;;2.86;;
71176;SDS011;58877;51.992;4.504;2022-09-09T05:58:46;3.26;;;2.82;;
71176;SDS011;58877;51.992;4.504;2022-09-09T06:01:18;2.68;;;2.30;;
71176;SDS011;58877;51.992;4.504;2022-09-09T06:03:46;3.34;;;2.79;;
71176;SDS011;58877;51.992;4.504;2022-09-09T06:06:18;3.27;;;2.72;;
71176;SDS011;58877;51.992;4.504;2022-09-09T06:08:48;3.31;;;2.65;;
71176;SDS011;58877;51.992;4.504;2022-09-09T06:13:46;3.07;;;2.54;;
71176;SDS011;58877;51.992;4.504;2022-09-09T06:16:13;3.14;;;2.61;;
71176;SDS011;58877;51.992;4.504;2022-09-09T06:18:41;3.15;;;2.61;;
71176;SDS011;58877;51.992;4.504;2022-09-09T06:21:26;3.08;;;2.51;;
71176;SDS011;58877;51.992;4.504;2022-09-09T06:23:55;3.25;;;2.65;;
71176;SDS011;58877;51.992;4.504;2022-09-09T06:26:25;2.86;;;2.28;;
71176;SDS011;58877;51.992;4.504;2022-09-09T06:28:53;3.68;;;2.91;;
71176;SDS011;58877;51.992;4.504;2022-09-09T06:31:21;3.38;;;2.67;;
71176;SDS011;58877;51.992;4.504;2022-09-09T06:33:50;3.74;;;2.94;;
71176;SDS011;58877;51.992;4.504;2022-09-09T06:36:18;2.77;;;2.24;;
71176;SDS011;58877;51.992;4.504;2022-09-09T06:38:45;2.84;;;2.36;;
71176;SDS011;58877;51.992;4.504;2022-09-09T06:41:13;2.84;;;2.40;;
71176;SDS011;58877;51.992;4.504;2022-09-09T06:43:41;3.15;;;2.63;;
71176;SDS011;58877;51.992;4.504;2022-09-09T06:48:41;3.22;;;2.65;;
71176;SDS011;58877;51.992;4.504;2022-09-09T06:51:16;3.43;;;2.89;;
71176;SDS011;58877;51.992;4.504;2022-09-09T06:53:52;3.43;;;2.95;;
71176;SDS011;58877;51.992;4.504;2022-09-09T06:58:46;3.10;;;2.73;;
71176;SDS011;58877;51.992;4.504;2022-09-09T07:01:21;3.04;;;2.65;;
71176;SDS011;58877;51.992;4.504;2022-09-09T07:03:49;3.23;;;2.86;;
71176;SDS011;58877;51.992;4.504;2022-09-09T07:06:27;3.27;;;2.86;;
71176;SDS011;58877;51.992;4.504;2022-09-09T07:08:59;3.13;;;2.78;;
71176;SDS011;58877;51.992;4.504;2022-09-09T07:11:27;3.02;;;2.71;;
71176;SDS011;58877;51.992;4.504;2022-09-09T07:13:54;3.36;;;2.98;;
71176;SDS011;58877;51.992;4.504;2022-09-09T07:16:22;3.00;;;2.66;;
71176;SDS011;58877;51.992;4.504;2022-09-09T07:18:52;3.14;;;2.82;;
71176;SDS011;58877;51.992;4.504;2022-09-09T07:21:22;3.23;;;2.88;;
71176;SDS011;58877;51.992;4.504;2022-09-09T07:23:51;3.79;;;3.47;;
71176;SDS011;58877;51.992;4.504;2022-09-09T07:26:28;3.60;;;3.28;;
71176;SDS011;58877;51.992;4.504;2022-09-09T07:28:57;3.48;;;3.18;;
71176;SDS011;58877;51.992;4.504;2022-09-09T07:31:28;3.34;;;3.11;;
71176;SDS011;58877;51.992;4.504;2022-09-09T07:33:55;3.20;;;3.05;;
71176;SDS011;58877;51.992;4.504;2022-09-09T07:36:25;3.37;;;3.34;;
71176;SDS011;58877;51.992;4.504;2022-09-09T07:38:57;3.70;;;3.62;;
71176;SDS011;58877;51.992;4.504;2022-09-09T07:41:35;3.34;;;3.31;;
71176;SDS011;58877;51.992;4.504;2022-09-09T07:44:10;3.76;;;3.67;;
71176;SDS011;58877;51.992;4.504;2022-09-09T07:46:38;3.06;;;3.05;;
71176;SDS011;58877;51.992;4.504;2022-09-09T07:49:08;3.29;;;3.25;;
71176;SDS011;58877;51.992;4.504;2022-09-09T07:51:35;3.42;;;3.28;;
71176;SDS011;58877;51.992;4.504;2022-09-09T07:54:07;3.19;;;2.99;;
71176;SDS011;58877;51.992;4.504;2022-09-09T07:56:35;3.30;;;3.07;;
71176;SDS011;58877;51.992;4.504;2022-09-09T07:59:01;3.53;;;3.26;;
71176;SDS011;58877;51.992;4.504;2022-09-09T08:01:36;3.06;;;2.86;;
71176;SDS011;58877;51.992;4.504;2022-09-09T08:04:05;3.11;;;2.97;;
71176;SDS011;58877;51.992;4.504;2022-09-09T08:06:43;2.72;;;2.62;;
71176;SDS011;58877;51.992;4.504;2022-09-09T08:09:14;2.94;;;2.80;;
71176;SDS011;58877;51.992;4.504;2022-09-09T08:11:40;2.92;;;2.75;;
71176;SDS011;58877;51.992;4.504;2022-09-09T08:14:07;2.92;;;2.74;;
71176;SDS011;58877;51.992;4.504;2022-09-09T08:16:36;2.54;;;2.36;;
71176;SDS011;58877;51.992;4.504;2022-09-09T08:19:07;2.82;;;2.62;;
71176;SDS011;58877;51.992;4.504;2022-09-09T08:21:34;3.10;;;2.90;;
71176;SDS011;58877;51.992;4.504;2022-09-09T08:24:05;3.27;;;3.04;;
71176;SDS011;58877;51.992;4.504;2022-09-09T08:26:36;3.17;;;2.96;;
71176;SDS011;58877;51.992;4.504;2022-09-09T08:29:04;2.86;;;2.67;;
71176;SDS011;58877;51.992;4.504;2022-09-09T08:31:33;3.28;;;3.05;;
71176;SDS011;58877;51.992;4.504;2022-09-09T08:34:10;2.83;;;2.65;;
71176;SDS011;58877;51.992;4.504;2022-09-09T08:36:38;2.80;;;2.63;;
71176;SDS011;58877;51.992;4.504;2022-09-09T08:39:08;3.19;;;3.01;;
71176;SDS011;58877;51.992;4.504;2022-09-09T08:44:50;3.36;;;3.18;;
71176;SDS011;58877;51.992;4.504;2022-09-09T08:47:35;3.03;;;2.89;;
71176;SDS011;58877;51.992;4.504;2022-09-09T08:52:59;2.88;;;2.71;;
71176;SDS011;58877;51.992;4.504;2022-09-09T08:58:20;3.02;;;2.93;;
71176;SDS011;58877;51.992;4.504;2022-09-09T09:11:49;3.17;;;3.01;;
71176;SDS011;58877;51.992;4.504;2022-09-09T09:16:53;3.54;;;3.20;;
71176;SDS011;58877;51.992;4.504;2022-09-09T09:19:24;2.83;;;2.58;;
71176;SDS011;58877;51.992;4.504;2022-09-09T09:24:25;3.52;;;3.20;;
71176;SDS011;58877;51.992;4.504;2022-09-09T09:26:57;2.99;;;2.70;;
71176;SDS011;58877;51.992;4.504;2022-09-09T09:29:32;3.03;;;2.80;;
71176;SDS011;58877;51.992;4.504;2022-09-09T09:32:00;2.87;;;2.76;;
71176;SDS011;58877;51.992;4.504;2022-09-09T09:34:28;3.22;;;3.05;;
71176;SDS011;58877;51.992;4.504;2022-09-09T09:36:57;3.02;;;3.01;;
71176;SDS011;58877;51.992;4.504;2022-09-09T09:39:33;3.03;;;2.89;;
71176;SDS011;58877;51.992;4.504;2022-09-09T09:42:10;3.71;;;3.39;;
71176;SDS011;58877;51.992;4.504;2022-09-09T09:44:39;3.21;;;2.98;;
71176;SDS011;58877;51.992;4.504;2022-09-09T09:47:19;2.56;;;2.49;;
71176;SDS011;58877;51.992;4.504;2022-09-09T09:49:52;2.80;;;2.80;;
71176;SDS011;58877;51.992;4.504;2022-09-09T09:52:22;2.60;;;2.60;;
71176;SDS011;58877;51.992;4.504;2022-09-09T09:54:54;2.76;;;2.61;;
71176;SDS011;58877;51.992;4.504;2022-09-09T09:57:28;3.09;;;2.92;;
71176;SDS011;58877;51.992;4.504;2022-09-09T10:00:00;2.62;;;2.53;;
71176;SDS011;58877;51.992;4.504;2022-09-09T10:02:37;2.90;;;2.75;;
71176;SDS011;58877;51.992;4.504;2022-09-09T10:05:08;3.16;;;2.92;;
71176;SDS011;58877;51.992;4.504;2022-09-09T10:07:37;2.85;;;2.62;;
71176;SDS011;58877;51.992;4.504;2022-09-09T10:10:04;2.97;;;2.75;;
71176;SDS011;58877;51.992;4.504;2022-09-09T10:12:37;3.01;;;2.81;;
71176;SDS011;58877;51.992;4.504;2022-09-09T10:32:50;2.41;;;2.28;;
71176;SDS011;58877;51.992;4.504;2022-09-09T10:38:17;2.51;;;2.38;;
71176;SDS011;58877;51.992;4.504;2022-09-09T10:46:00;2.43;;;2.43;;
71176;SDS011;58877;51.992;4.504;2022-09-09T10:51:19;2.42;;;2.26;;
71176;SDS011;58877;51.992;4.504;2022-09-09T10:56:24;2.16;;;1.98;;
71176;SDS011;58877;51.992;4.504;2022-09-09T11:01:42;2.18;;;2.12;;
71176;SDS011;58877;51.992;4.504;2022-09-09T11:06:49;2.33;;;2.18;;
71176;SDS011;58877;51.992;4.504;2022-09-09T11:09:31;2.21;;;2.07;;
71176;SDS011;58877;51.992;4.504;2022-09-09T11:12:04;2.31;;;2.20;;
71176;SDS011;58877;51.992;4.504;2022-09-09T11:17:38;2.25;;;2.14;;
71176;SDS011;58877;51.992;4.504;2022-09-09T11:20:11;2.07;;;1.97;;
71176;SDS011;58877;51.992;4.504;2022-09-09T11:25:23;2.06;;;2.05;;
71176;SDS011;58877;51.992;4.504;2022-09-09T11:30:50;2.29;;;2.20;;
71176;SDS011;58877;51.992;4.504;2022-09-09T11:38:52;2.40;;;2.31;;
71176;SDS011;58877;51.992;4.504;2022-09-09T11:41:23;2.24;;;2.13;;
71176;SDS011;58877;51.992;4.504;2022-09-09T11:43:50;2.55;;;2.42;;
71176;SDS011;58877;51.992;4.504;2022-09-09T11:46:19;2.35;;;2.27;;
71176;SDS011;58877;51.992;4.504;2022-09-09T11:49:03;2.75;;;2.54;;
71176;SDS011;58877;51.992;4.504;2022-09-09T11:51:33;2.72;;;2.49;;
71176;SDS011;58877;51.992;4.504;2022-09-09T11:56:55;3.24;;;2.94;;
71176;SDS011;58877;51.992;4.504;2022-09-09T11:59:25;3.00;;;2.76;;
71176;SDS011;58877;51.992;4.504;2022-09-09T12:01:55;2.83;;;2.56;;
71176;SDS011;58877;51.992;4.504;2022-09-09T12:09:19;2.79;;;2.68;;
71176;SDS011;58877;51.992;4.504;2022-09-09T12:14:42;3.15;;;3.06;;
71176;SDS011;58877;51.992;4.504;2022-09-09T12:17:22;3.31;;;3.18;;
71176;SDS011;58877;51.992;4.504;2022-09-09T12:20:01;2.60;;;2.51;;
71176;SDS011;58877;51.992;4.504;2022-09-09T12:22:43;2.88;;;2.78;;
71176;SDS011;58877;51.992;4.504;2022-09-09T12:30:56;2.18;;;2.16;;
71176;SDS011;58877;51.992;4.504;2022-09-09T12:33:33;1.89;;;1.89;;
71176;SDS011;58877;51.992;4.504;2022-09-09T12:36:02;2.04;;;2.04;;
71176;SDS011;58877;51.992;4.504;2022-09-09T12:38:35;2.19;;;2.19;;
71176;SDS011;58877;51.992;4.504;2022-09-09T12:41:04;2.32;;;2.32;;
71176;SDS011;58877;51.992;4.504;2022-09-09T12:43:29;2.18;;;2.18;;
71176;SDS011;58877;51.992;4.504;2022-09-09T12:46:08;2.46;;;2.46;;
71176;SDS011;58877;51.992;4.504;2022-09-09T12:48:52;2.70;;;2.70;;
71176;SDS011;58877;51.992;4.504;2022-09-09T12:51:21;2.80;;;2.80;;
71176;SDS011;58877;51.992;4.504;2022-09-09T12:53:52;2.44;;;2.44;;
71176;SDS011;58877;51.992;4.504;2022-09-09T12:56:19;2.88;;;2.88;;
71176;SDS011;58877;51.992;4.504;2022-09-09T12:58:52;2.36;;;2.28;;
71176;SDS011;58877;51.992;4.504;2022-09-09T13:01:27;2.41;;;2.35;;
71176;SDS011;58877;51.992;4.504;2022-09-09T13:03:55;2.14;;;2.11;;
71176;SDS011;58877;51.992;4.504;2022-09-09T13:06:27;2.03;;;2.00;;
71176;SDS011;58877;51.992;4.504;2022-09-09T13:08:55;2.10;;;2.08;;
71176;SDS011;58877;51.992;4.504;2022-09-09T13:11:25;2.11;;;2.11;;
71176;SDS011;58877;51.992;4.504;2022-09-09T13:14:01;1.69;;;1.69;;
71176;SDS011;58877;51.992;4.504;2022-09-09T13:19:01;1.64;;;1.64;;
71176;SDS011;58877;51.992;4.504;2022-09-09T13:21:36;1.54;;;1.54;;
71176;SDS011;58877;51.992;4.504;2022-09-09T13:24:04;1.42;;;1.42;;
71176;SDS011;58877;51.992;4.504;2022-09-09T13:26:59;1.44;;;1.44;;
71176;SDS011;58877;51.992;4.504;2022-09-09T13:29:27;1.41;;;1.41;;
71176;SDS011;58877;51.992;4.504;2022-09-09T13:31:54;1.17;;;1.17;;
71176;SDS011;58877;51.992;4.504;2022-09-09T13:34:31;1.46;;;1.46;;
71176;SDS011;58877;51.992;4.504;2022-09-09T13:37:00;1.39;;;1.39;;
71176;SDS011;58877;51.992;4.504;2022-09-09T13:39:28;1.55;;;1.55;;
71176;SDS011;58877;51.992;4.504;2022-09-09T13:41:54;1.74;;;1.70;;
71176;SDS011;58877;51.992;4.504;2022-09-09T13:44:30;1.58;;;1.56;;
71176;SDS011;58877;51.992;4.504;2022-09-09T13:49:30;2.27;;;2.13;;
71176;SDS011;58877;51.992;4.504;2022-09-09T13:52:11;1.85;;;1.75;;
71176;SDS011;58877;51.992;4.504;2022-09-09T13:54:39;1.72;;;1.66;;
71176;SDS011;58877;51.992;4.504;2022-09-09T13:57:05;1.99;;;1.95;;
71176;SDS011;58877;51.992;4.504;2022-09-09T13:59:40;2.19;;;2.06;;
71176;SDS011;58877;51.992;4.504;2022-09-09T14:02:06;1.74;;;1.66;;
71176;SDS011;58877;51.992;4.504;2022-09-09T14:04:32;1.76;;;1.76;;
71176;SDS011;58877;51.992;4.504;2022-09-09T14:07:00;1.53;;;1.53;;
71176;SDS011;58877;51.992;4.504;2022-09-09T14:09:27;1.58;;;1.54;;
71176;SDS011;58877;51.992;4.504;2022-09-09T14:11:52;1.67;;;1.59;;
71176;SDS011;58877;51.992;4.504;2022-09-09T14:14:18;1.41;;;1.34;;
71176;SDS011;58877;51.992;4.504;2022-09-09T14:16:43;1.33;;;1.28;;
71176;SDS011;58877;51.992;4.504;2022-09-09T14:19:09;1.58;;;1.50;;
71176;SDS011;58877;51.992;4.504;2022-09-09T14:21:35;2.01;;;1.87;;
71176;SDS011;58877;51.992;4.504;2022-09-09T14:24:00;1.91;;;1.80;;
71176;SDS011;58877;51.992;4.504;2022-09-09T14:26:26;1.64;;;1.52;;
71176;SDS011;58877;51.992;4.504;2022-09-09T14:28:53;1.66;;;1.52;;
71176;SDS011;58877;51.992;4.504;2022-09-09T14:31:19;1.35;;;1.24;;
71176;SDS011;58877;51.992;4.504;2022-09-09T14:33:46;1.43;;;1.28;;
71176;SDS011;58877;51.992;4.504;2022-09-09T14:36:11;1.69;;;1.49;;
71176;SDS011;58877;51.992;4.504;2022-09-09T14:38:38;1.80;;;1.55;;
71176;SDS011;58877;51.992;4.504;2022-09-09T14:41:05;1.79;;;1.56;;
71176;SDS011;58877;51.992;4.504;2022-09-09T14:43:31;1.46;;;1.26;;
71176;SDS011;58877;51.992;4.504;2022-09-09T14:46:03;1.50;;;1.29;;
71176;SDS011;58877;51.992;4.504;2022-09-09T14:48:33;1.82;;;1.56;;
71176;SDS011;58877;51.992;4.504;2022-09-09T14:51:13;2.03;;;1.69;;
71176;SDS011;58877;51.992;4.504;2022-09-09T14:53:47;1.38;;;1.14;;
71176;SDS011;58877;51.992;4.504;2022-09-09T14:56:17;1.55;;;1.28;;
71176;SDS011;58877;51.992;4.504;2022-09-09T14:58:45;1.77;;;1.45;;
71176;SDS011;58877;51.992;4.504;2022-09-09T15:01:12;1.40;;;1.14;;
71176;SDS011;58877;51.992;4.504;2022-09-09T15:03:40;1.33;;;1.07;;
71176;SDS011;58877;51.992;4.504;2022-09-09T15:06:09;2.12;;;1.68;;
71176;SDS011;58877;51.992;4.504;2022-09-09T15:08:36;1.79;;;1.37;;
71176;SDS011;58877;51.992;4.504;2022-09-09T15:11:05;2.16;;;1.65;;
71176;SDS011;58877;51.992;4.504;2022-09-09T15:13:35;1.84;;;1.42;;
71176;SDS011;58877;51.992;4.504;2022-09-09T15:16:06;2.05;;;1.54;;
71176;SDS011;58877;51.992;4.504;2022-09-09T15:18:33;1.86;;;1.38;;
71176;SDS011;58877;51.992;4.504;2022-09-09T15:20:59;1.94;;;1.46;;
71176;SDS011;58877;51.992;4.504;2022-09-09T15:23:26;1.72;;;1.32;;
71176;SDS011;58877;51.992;4.504;2022-09-09T15:26:08;1.80;;;1.36;;
71176;SDS011;58877;51.992;4.504;2022-09-09T15:28:35;2.07;;;1.59;;
71176;SDS011;58877;51.992;4.504;2022-09-09T15:31:11;2.10;;;1.66;;
71176;SDS011;58877;51.992;4.504;2022-09-09T15:33:39;2.17;;;1.72;;
71176;SDS011;58877;51.992;4.504;2022-09-09T15:38:51;2.08;;;1.72;;
71176;SDS011;58877;51.992;4.504;2022-09-09T15:41:18;2.01;;;1.73;;
71176;SDS011;58877;51.992;4.504;2022-09-09T15:43:49;2.07;;;1.78;;
71176;SDS011;58877;51.992;4.504;2022-09-09T15:46:27;2.61;;;2.26;;
71176;SDS011;58877;51.992;4.504;2022-09-09T15:51:53;2.58;;;2.36;;
71176;SDS011;58877;51.992;4.504;2022-09-09T15:54:22;2.71;;;2.51;;
71176;SDS011;58877;51.992;4.504;2022-09-09T15:56:51;3.25;;;3.07;;
71176;SDS011;58877;51.992;4.504;2022-09-09T15:59:20;2.86;;;2.74;;
71176;SDS011;58877;51.992;4.504;2022-09-09T16:01:46;3.18;;;3.09;;
71176;SDS011;58877;51.992;4.504;2022-09-09T16:04:12;3.10;;;3.06;;
71176;SDS011;58877;51.992;4.504;2022-09-09T16:06:38;3.35;;;3.32;;
71176;SDS011;58877;51.992;4.504;2022-09-09T16:09:04;3.85;;;3.85;;
71176;SDS011;58877;51.992;4.504;2022-09-09T16:11:32;4.14;;;4.13;;
71176;SDS011;58877;51.992;4.504;2022-09-09T16:14:00;4.15;;;4.15;;
71176;SDS011;58877;51.992;4.504;2022-09-09T16:16:27;3.95;;;3.95;;
71176;SDS011;58877;51.992;4.504;2022-09-09T16:18:55;4.05;;;4.05;;
71176;SDS011;58877;51.992;4.504;2022-09-09T16:21:24;3.74;;;3.74;;
71176;SDS011;58877;51.992;4.504;2022-09-09T16:23:54;3.64;;;3.64;;
71176;SDS011;58877;51.992;4.504;2022-09-09T16:26:21;3.91;;;3.91;;
71176;SDS011;58877;51.992;4.504;2022-09-09T16:28:48;3.17;;;3.17;;
71176;SDS011;58877;51.992;4.504;2022-09-09T16:31:17;3.73;;;3.73;;
71176;SDS011;58877;51.992;4.504;2022-09-09T16:33:45;3.79;;;3.79;;
71176;SDS011;58877;51.992;4.504;2022-09-09T16:36:21;3.95;;;3.95;;
71176;SDS011;58877;51.992;4.504;2022-09-09T16:38:56;3.91;;;3.91;;
71176;SDS011;58877;51.992;4.504;2022-09-09T16:41:24;3.68;;;3.68;;
71176;SDS011;58877;51.992;4.504;2022-09-09T16:43:53;3.71;;;3.71;;
71176;SDS011;58877;51.992;4.504;2022-09-09T16:46:20;3.06;;;3.06;;
71176;SDS011;58877;51.992;4.504;2022-09-09T16:48:47;2.80;;;2.80;;
71176;SDS011;58877;51.992;4.504;2022-09-09T16:51:17;2.67;;;2.67;;
71176;SDS011;58877;51.992;4.504;2022-09-09T16:53:49;2.26;;;2.26;;
71176;SDS011;58877;51.992;4.504;2022-09-09T16:56:17;2.39;;;2.39;;
71176;SDS011;58877;51.992;4.504;2022-09-09T16:58:49;2.35;;;2.35;;
71176;SDS011;58877;51.992;4.504;2022-09-09T17:01:16;2.59;;;2.59;;
71176;SDS011;58877;51.992;4.504;2022-09-09T17:03:41;2.93;;;2.93;;
71176;SDS011;58877;51.992;4.504;2022-09-09T17:06:14;2.96;;;2.96;;
71176;SDS011;58877;51.992;4.504;2022-09-09T17:08:40;3.06;;;3.06;;
71176;SDS011;58877;51.992;4.504;2022-09-09T17:11:17;2.78;;;2.78;;
71176;SDS011;58877;51.992;4.504;2022-09-09T17:13:44;3.25;;;3.25;;
71176;SDS011;58877;51.992;4.504;2022-09-09T17:16:12;3.52;;;3.51;;
71176;SDS011;58877;51.992;4.504;2022-09-09T17:18:39;3.57;;;3.52;;
71176;SDS011;58877;51.992;4.504;2022-09-09T17:21:07;3.58;;;3.58;;
71176;SDS011;58877;51.992;4.504;2022-09-09T17:23:39;3.28;;;3.28;;
71176;SDS011;58877;51.992;4.504;2022-09-09T17:26:06;3.46;;;3.46;;
71176;SDS011;58877;51.992;4.504;2022-09-09T17:28:38;3.43;;;3.43;;
71176;SDS011;58877;51.992;4.504;2022-09-09T17:31:09;3.24;;;3.24;;
71176;SDS011;58877;51.992;4.504;2022-09-09T17:33:37;3.30;;;3.29;;
71176;SDS011;58877;51.992;4.504;2022-09-09T17:36:08;3.24;;;3.23;;
71176;SDS011;58877;51.992;4.504;2022-09-09T17:38:39;3.24;;;3.23;;
71176;SDS011;58877;51.992;4.504;2022-09-09T17:41:06;3.11;;;3.09;;
71176;SDS011;58877;51.992;4.504;2022-09-09T17:43:35;3.12;;;3.10;;
71176;SDS011;58877;51.992;4.504;2022-09-09T17:46:16;2.36;;;2.35;;
71176;SDS011;58877;51.992;4.504;2022-09-09T17:48:47;2.37;;;2.35;;
71176;SDS011;58877;51.992;4.504;2022-09-09T17:51:19;2.55;;;2.53;;